weather.gov     
National Weather Service

Terminal Aerodrome Forecast
NWS Homepage
This page is being discontinued on March 12, 2014.
The same data is available at this site. Please update your bookmarks.
Thank you, and we apologize for the inconvenience.
Please send an email to SR-SRH.Webmaster@noaa.gov with any concerns.


Current Version
Previous Version:    01  02  03  04  05  06  07  08  09  10  11  12  13  14  15  16  17  18  19  20  21  22  23  24  25  26  27  28  29  30  
   31  
[Printable]
230
FTUS43 KDMX 270535
TAFALO
TAF
KALO 270535Z 2706/2806 32009KT P6SM OVC040
     FM270800 33009KT P6SM OVC030
     FM271600 04005KT P6SM SCT030
     FM272200 13006KT P6SM SCT030=




230
FTUS43 KDMX 270535
TAFALO
TAF
KALO 270535Z 2706/2806 32009KT P6SM OVC040
     FM270800 33009KT P6SM OVC030
     FM271600 04005KT P6SM SCT030
     FM272200 13006KT P6SM SCT030=


U.S. Dept. of Commerce
NOAA National Weather Service
1325 East West Highway
Silver Spring, MD 20910
E-mail: w-nws.webmaster@noaa.gov
Page last modified: May 16, 2007
NATIONAL WEATHER SERVICE: for Safety, for Work, for Fun - FOR LIFE